createdAt,value
2017-12-05T00:00:01.092Z,12.13
2017-12-05T00:02:30.026Z,10.52
2017-12-05T00:04:59.490Z,11.68
2017-12-05T00:07:28.220Z,17.45
2017-12-05T00:09:58.619Z,11.23
2017-12-05T00:12:27.306Z,9.80
2017-12-05T00:14:56.160Z,8.02
2017-12-05T00:17:25.253Z,8.27
2017-12-05T00:19:54.116Z,9.50
2017-12-05T00:22:22.850Z,8.77
2017-12-05T00:24:51.612Z,7.32
2017-12-05T00:27:19.979Z,7.00
2017-12-05T00:29:48.454Z,11.23
2017-12-05T00:32:17.946Z,13.23
2017-12-05T00:34:46.754Z,8.38
2017-12-05T00:37:16.234Z,11.18
2017-12-05T00:39:44.940Z,10.68
2017-12-05T00:42:13.745Z,11.27
2017-12-05T00:44:42.455Z,12.85
2017-12-05T00:47:10.478Z,8.68
2017-12-05T00:49:39.172Z,10.18
2017-12-05T00:52:07.895Z,10.32
2017-12-05T00:54:36.643Z,9.55
2017-12-05T00:57:05.355Z,11.55
2017-12-05T00:59:34.811Z,12.80
2017-12-05T01:02:03.563Z,8.25
2017-12-05T01:04:32.263Z,10.55
2017-12-05T01:07:00.983Z,8.60
2017-12-05T01:09:29.751Z,9.23
2017-12-05T01:11:58.446Z,10.07
2017-12-05T01:14:27.167Z,8.07
2017-12-05T01:16:56.050Z,8.80
2017-12-05T01:19:24.762Z,11.48
2017-12-05T01:21:54.211Z,10.90
2017-12-05T01:24:22.919Z,9.07
2017-12-05T01:26:51.598Z,9.70
2017-12-05T01:29:20.351Z,6.30
2017-12-05T01:31:49.113Z,6.50
2017-12-05T01:34:17.800Z,7.40
2017-12-05T01:36:47.287Z,9.65
2017-12-05T01:39:15.998Z,12.37
2017-12-05T01:41:45.119Z,7.55
2017-12-05T01:44:13.820Z,14.32
2017-12-05T01:46:42.330Z,8.35
2017-12-05T01:49:11.018Z,10.55
2017-12-05T01:51:39.918Z,6.85
2017-12-05T01:54:08.414Z,9.75
2017-12-05T01:56:37.130Z,8.15
2017-12-05T01:59:06.070Z,8.75
2017-12-05T02:01:34.779Z,9.30
2017-12-05T02:04:03.282Z,8.95
2017-12-05T02:06:32.415Z,13.75
2017-12-05T02:09:00.440Z,9.40
2017-12-05T02:11:28.474Z,6.78
2017-12-05T02:13:56.642Z,7.05
2017-12-05T02:16:24.691Z,6.40
2017-12-05T02:18:53.214Z,10.15
2017-12-05T02:21:21.226Z,10.43
2017-12-05T02:23:50.708Z,7.75
2017-12-05T02:26:19.395Z,7.75
2017-12-05T02:28:48.134Z,9.35
2017-12-05T02:31:16.811Z,7.93
2017-12-05T02:33:45.914Z,8.38
2017-12-05T02:36:14.608Z,7.10
2017-12-05T02:38:43.423Z,12.85
2017-12-05T02:41:12.171Z,10.40
2017-12-05T02:43:40.879Z,7.70
2017-12-05T02:46:09.235Z,7.20
2017-12-05T02:48:38.708Z,10.10
2017-12-05T02:51:06.882Z,6.12
2017-12-05T02:53:35.257Z,8.00
2017-12-05T02:56:03.438Z,6.05
2017-12-05T02:58:31.482Z,7.80
2017-12-05T03:00:59.511Z,7.75
2017-12-05T03:03:28.971Z,7.45
2017-12-05T03:05:57.336Z,10.50
2017-12-05T03:08:25.703Z,8.80
2017-12-05T03:10:53.946Z,7.95
2017-12-05T03:13:23.674Z,9.23
2017-12-05T03:15:52.050Z,11.60
2017-12-05T03:18:20.851Z,8.45
2017-12-05T03:20:49.550Z,9.88
2017-12-05T03:23:18.402Z,12.18
2017-12-05T03:25:47.123Z,8.40
2017-12-05T03:28:15.818Z,11.75
2017-12-05T03:30:44.518Z,10.82
2017-12-05T03:33:13.297Z,9.52
2017-12-05T03:35:41.998Z,15.13
2017-12-05T03:38:10.703Z,10.18
2017-12-05T03:40:39.207Z,10.60
2017-12-05T03:43:07.958Z,9.73
2017-12-05T03:45:36.655Z,8.55
2017-12-05T03:48:05.345Z,11.95
2017-12-05T03:50:33.851Z,12.02
2017-12-05T03:53:02.364Z,10.30
2017-12-05T03:55:31.079Z,12.18
2017-12-05T03:57:59.890Z,10.35
2017-12-05T04:00:28.608Z,11.32
2017-12-05T04:02:58.078Z,11.65
2017-12-05T04:05:26.770Z,6.82
2017-12-05T04:07:55.474Z,9.93
2017-12-05T04:10:24.235Z,9.55
2017-12-05T04:12:52.957Z,11.40
2017-12-05T04:15:21.653Z,10.57
2017-12-05T04:17:50.558Z,9.10
2017-12-05T04:20:20.026Z,9.65
2017-12-05T04:22:48.748Z,10.93
2017-12-05T04:25:18.202Z,8.82
2017-12-05T04:27:46.918Z,12.20
2017-12-05T04:30:15.604Z,11.10
2017-12-05T04:32:44.334Z,10.75
2017-12-05T04:35:13.128Z,12.40
2017-12-05T04:37:41.827Z,10.02
2017-12-05T04:40:10.638Z,8.82
2017-12-05T04:42:39.347Z,11.00
2017-12-05T04:45:08.058Z,14.18
2017-12-05T04:47:36.750Z,7.53
2017-12-05T04:50:06.250Z,9.85
2017-12-05T04:52:35.515Z,8.82
2017-12-05T04:55:04.097Z,9.45
2017-12-05T04:57:32.778Z,9.00
2017-12-05T05:00:01.494Z,15.93
2017-12-05T05:02:29.779Z,7.75
2017-12-05T05:04:58.302Z,9.52
2017-12-05T05:07:26.758Z,8.43
2017-12-05T05:09:55.025Z,9.23
2017-12-05T05:12:23.547Z,8.45
2017-12-05T05:14:52.238Z,10.10
2017-12-05T05:17:20.807Z,12.48
2017-12-05T05:19:49.378Z,13.10
2017-12-05T05:22:18.652Z,11.30
2017-12-05T05:24:47.362Z,10.10
2017-12-05T05:27:16.721Z,12.30
2017-12-05T05:29:45.242Z,13.13
2017-12-05T05:32:13.948Z,11.93
2017-12-05T05:34:42.670Z,13.48
2017-12-05T05:37:11.380Z,12.10
2017-12-05T05:39:40.111Z,15.57
2017-12-05T05:42:08.818Z,12.88
2017-12-05T05:44:37.610Z,14.10
2017-12-05T05:47:06.350Z,17.08
2017-12-05T05:49:34.870Z,13.23
2017-12-05T05:52:03.570Z,13.43
2017-12-05T05:54:32.363Z,14.60
2017-12-05T05:57:01.070Z,15.35
2017-12-05T05:59:29.778Z,14.63
2017-12-05T06:01:58.484Z,14.57
2017-12-05T06:04:27.970Z,16.02
2017-12-05T06:06:56.672Z,10.95
2017-12-05T06:09:25.383Z,13.35
2017-12-05T06:11:54.174Z,13.00
2017-12-05T06:14:23.014Z,13.48
2017-12-05T06:16:51.722Z,17.23
2017-12-05T06:19:21.214Z,16.90
2017-12-05T06:21:49.918Z,13.73
2017-12-05T06:24:18.820Z,17.83
2017-12-05T06:26:48.410Z,14.48
2017-12-05T06:29:16.807Z,15.68
2017-12-05T06:31:46.286Z,19.17
2017-12-05T06:34:15.015Z,15.48
2017-12-05T06:36:43.740Z,16.40
2017-12-05T06:39:12.590Z,16.75
2017-12-05T06:41:42.064Z,15.40
2017-12-05T06:44:10.767Z,18.50
2017-12-05T06:46:40.290Z,13.68
2017-12-05T06:49:09.426Z,18.37
2017-12-05T06:51:37.822Z,12.23
2017-12-05T06:54:05.851Z,11.27
2017-12-05T06:56:34.222Z,13.35
2017-12-05T06:59:03.355Z,14.98
2017-12-05T07:01:31.754Z,13.23
2017-12-05T07:03:59.851Z,17.08
2017-12-05T07:06:29.026Z,14.43
2017-12-05T07:08:57.054Z,12.40
2017-12-05T07:11:25.176Z,12.80
2017-12-05T07:13:53.216Z,11.88
2017-12-05T07:16:21.251Z,12.48
2017-12-05T07:18:49.636Z,10.00
2017-12-05T07:21:19.098Z,12.27
2017-12-05T07:23:47.816Z,12.70
2017-12-05T07:26:16.191Z,10.95
2017-12-05T07:28:44.384Z,14.55
2017-12-05T07:31:13.541Z,14.00
2017-12-05T07:33:41.739Z,8.55
2017-12-05T07:36:10.463Z,9.32
2017-12-05T07:38:39.179Z,10.05
2017-12-05T07:41:07.205Z,10.80
2017-12-05T07:43:36.359Z,13.18
2017-12-05T07:46:05.080Z,12.13
2017-12-05T07:48:32.842Z,10.30
2017-12-05T07:51:00.866Z,9.00
2017-12-05T07:53:29.612Z,11.45
2017-12-05T07:55:58.418Z,9.98
2017-12-05T07:58:27.568Z,10.68
2017-12-05T08:00:56.407Z,9.48
2017-12-05T08:03:24.801Z,11.15
2017-12-05T08:05:52.607Z,10.00
2017-12-05T08:08:21.499Z,8.73
2017-12-05T08:10:49.858Z,9.30
2017-12-05T08:13:18.286Z,9.70
2017-12-05T08:15:46.062Z,12.00
2017-12-05T08:18:13.846Z,9.50
2017-12-05T08:20:42.082Z,10.40
2017-12-05T08:23:10.600Z,13.63
2017-12-05T08:25:38.519Z,9.57
2017-12-05T08:28:07.245Z,11.00
2017-12-05T08:30:35.142Z,9.63
2017-12-05T08:33:02.977Z,9.17
2017-12-05T08:35:31.090Z,9.23
2017-12-05T08:37:59.510Z,10.60
2017-12-05T08:40:28.431Z,9.20
2017-12-05T08:42:56.335Z,10.47
2017-12-05T08:45:24.534Z,8.60
2017-12-05T08:47:53.744Z,8.63
2017-12-05T08:50:22.358Z,8.80
2017-12-05T08:52:50.131Z,9.93
2017-12-05T08:55:18.233Z,8.80
2017-12-05T08:57:46.582Z,8.80
2017-12-05T09:00:14.675Z,8.50
2017-12-05T09:02:42.625Z,9.23
2017-12-05T09:05:10.410Z,9.63
2017-12-05T09:07:38.519Z,10.50
2017-12-05T09:10:06.635Z,10.47
2017-12-05T09:12:34.746Z,8.87
2017-12-05T09:15:03.203Z,8.73
2017-12-05T09:17:30.987Z,10.10
2017-12-05T09:19:59.145Z,7.97
2017-12-05T09:22:28.195Z,10.00
2017-12-05T09:24:56.257Z,10.07
2017-12-05T09:27:25.131Z,11.93
2017-12-05T09:29:53.046Z,9.13
2017-12-05T09:32:20.967Z,10.20
2017-12-05T09:34:48.886Z,11.17
2017-12-05T09:37:16.665Z,11.00
2017-12-05T09:39:44.747Z,9.53
2017-12-05T09:42:12.547Z,9.97
2017-12-05T09:44:40.649Z,10.43
2017-12-05T09:47:09.856Z,9.03
2017-12-05T09:49:38.710Z,10.00
2017-12-05T09:52:06.815Z,11.03
2017-12-05T09:54:35.348Z,10.47
2017-12-05T09:57:03.130Z,9.07
2017-12-05T09:59:30.895Z,13.00
2017-12-05T10:01:58.678Z,11.53
2017-12-05T10:04:26.448Z,10.30
2017-12-05T10:06:54.572Z,15.17
2017-12-05T10:09:22.674Z,8.50
2017-12-05T10:11:50.875Z,8.33
2017-12-05T10:14:19.730Z,7.90
2017-12-05T10:16:47.842Z,7.93
2017-12-05T10:19:16.710Z,8.30
2017-12-05T10:21:44.540Z,7.03
2017-12-05T10:24:12.642Z,11.73
2017-12-05T10:26:40.723Z,9.50
2017-12-05T10:29:08.554Z,7.40
2017-12-05T10:31:36.326Z,7.50
2017-12-05T10:34:04.763Z,8.33
2017-12-05T10:36:33.948Z,8.50
2017-12-05T10:39:02.118Z,8.07
2017-12-05T10:41:30.207Z,7.50
2017-12-05T10:43:58.779Z,9.20
2017-12-05T10:46:26.543Z,10.30
2017-12-05T10:48:54.315Z,9.27
2017-12-05T10:51:22.274Z,11.73
2017-12-05T10:53:50.141Z,8.70
2017-12-05T10:56:17.915Z,8.00
2017-12-05T10:58:47.839Z,10.40
2017-12-05T11:01:16.266Z,13.63
2017-12-05T11:03:44.839Z,7.40
2017-12-05T11:06:13.293Z,6.90
2017-12-05T11:08:41.711Z,7.50
2017-12-05T11:11:09.985Z,6.60
2017-12-05T11:13:38.424Z,6.83
2017-12-05T11:16:07.190Z,9.40
2017-12-05T11:18:35.610Z,7.80
2017-12-05T11:21:03.979Z,9.33
2017-12-05T11:23:32.396Z,10.80
2017-12-05T11:26:00.702Z,8.20
2017-12-05T11:28:28.910Z,8.97
2017-12-05T11:30:57.759Z,8.47
2017-12-05T11:33:26.194Z,8.27
2017-12-05T11:35:55.375Z,9.00
2017-12-05T11:38:23.885Z,10.10
2017-12-05T11:40:53.064Z,8.57
2017-12-05T11:43:21.918Z,7.73
2017-12-05T11:45:50.338Z,9.40
2017-12-05T11:48:18.782Z,9.30
2017-12-05T11:50:47.336Z,8.70
2017-12-05T11:53:15.488Z,9.40
2017-12-05T11:55:44.722Z,7.93
2017-12-05T11:58:12.826Z,8.90
2017-12-05T12:00:40.907Z,10.40
2017-12-05T12:03:09.341Z,11.10
2017-12-05T12:05:37.131Z,11.07
2017-12-05T12:08:05.318Z,11.07
2017-12-05T12:10:33.775Z,9.03
2017-12-05T12:13:02.199Z,9.30
2017-12-05T12:15:30.846Z,8.60
2017-12-05T12:17:59.278Z,9.07
2017-12-05T12:20:27.726Z,8.43
2017-12-05T12:22:56.186Z,9.87
2017-12-05T12:25:24.661Z,9.30
2017-12-05T12:27:53.118Z,10.10
2017-12-05T12:30:22.307Z,10.80
2017-12-05T12:32:50.742Z,10.30
2017-12-05T12:35:19.186Z,9.10
2017-12-05T12:37:48.379Z,10.47
2017-12-05T12:40:17.610Z,10.07
2017-12-05T12:42:46.042Z,9.73
2017-12-05T12:45:14.227Z,11.30
2017-12-05T12:47:43.431Z,9.63
2017-12-05T12:50:12.643Z,11.53
2017-12-05T12:52:41.874Z,11.57
2017-12-05T12:55:11.131Z,9.83
2017-12-05T12:57:40.346Z,9.10
2017-12-05T13:00:09.535Z,10.93
2017-12-05T13:02:38.761Z,11.90
2017-12-05T13:05:07.186Z,14.23
2017-12-05T13:07:35.668Z,8.50
2017-12-05T13:10:04.100Z,9.50
2017-12-05T13:12:32.527Z,8.57
2017-12-05T13:15:01.039Z,8.23
2017-12-05T13:17:30.234Z,10.67
2017-12-05T13:19:59.448Z,10.77
2017-12-05T13:22:28.645Z,8.47
2017-12-05T13:24:57.864Z,8.30
2017-12-05T13:27:26.287Z,9.03
2017-12-05T13:29:54.725Z,9.40
2017-12-05T13:32:23.255Z,10.17
2017-12-05T13:34:51.690Z,9.77
2017-12-05T13:37:20.118Z,9.60
2017-12-05T13:39:48.566Z,13.27
2017-12-05T13:42:16.997Z,10.07
2017-12-05T13:44:45.653Z,12.07
2017-12-05T13:47:15.295Z,10.67
2017-12-05T13:49:43.724Z,10.13
2017-12-05T13:52:12.183Z,9.53
2017-12-05T13:54:41.239Z,10.57
2017-12-05T13:57:09.693Z,9.10
2017-12-05T13:59:37.961Z,10.20
2017-12-05T14:02:05.747Z,10.40
2017-12-05T14:04:33.871Z,11.87
2017-12-05T14:07:03.059Z,8.53
2017-12-05T14:09:31.306Z,9.90
2017-12-05T14:11:59.752Z,8.80
2017-12-05T14:14:28.116Z,8.13
2017-12-05T14:16:56.558Z,8.57
2017-12-05T14:19:25.047Z,9.13
2017-12-05T14:21:53.163Z,9.23
2017-12-05T14:24:21.586Z,8.97
2017-12-05T14:26:50.046Z,8.77
2017-12-05T14:29:18.479Z,12.00
2017-12-05T14:31:46.907Z,19.33
2017-12-05T14:34:15.151Z,14.67
2017-12-05T14:36:44.355Z,9.50
2017-12-05T14:39:12.830Z,10.07
2017-12-05T14:41:42.096Z,13.13
2017-12-05T14:44:10.227Z,10.43
2017-12-05T14:46:38.673Z,10.63
2017-12-05T14:49:07.119Z,9.00
2017-12-05T14:51:35.220Z,10.80
2017-12-05T14:54:03.653Z,8.77
2017-12-05T14:56:31.535Z,10.07
2017-12-05T14:58:59.311Z,10.87
2017-12-05T15:01:27.486Z,11.00
2017-12-05T15:03:55.910Z,9.80
2017-12-05T15:06:25.196Z,10.30
2017-12-05T15:08:53.667Z,9.70
2017-12-05T15:11:22.107Z,9.50
2017-12-05T15:13:50.172Z,10.13
2017-12-05T15:16:18.651Z,11.70
2017-12-05T15:18:47.207Z,13.37
2017-12-05T15:21:15.690Z,11.60
2017-12-05T15:23:44.111Z,8.57
2017-12-05T15:26:12.534Z,8.30
2017-12-05T15:28:40.968Z,10.27
2017-12-05T15:31:09.422Z,9.33
2017-12-05T15:33:38.626Z,8.73
2017-12-05T15:36:07.834Z,12.70
2017-12-05T15:38:35.967Z,9.70
2017-12-05T15:41:05.163Z,9.90
2017-12-05T15:43:33.612Z,10.60
2017-12-05T15:46:02.081Z,8.97
2017-12-05T15:48:30.021Z,10.23
2017-12-05T15:50:59.253Z,9.63
2017-12-05T15:53:27.792Z,11.77
2017-12-05T15:55:56.210Z,9.37
2017-12-05T15:58:24.649Z,9.90
2017-12-05T16:00:52.461Z,11.13
2017-12-05T16:03:20.931Z,9.70
2017-12-05T16:05:50.150Z,10.20
2017-12-05T16:08:18.618Z,12.57
2017-12-05T16:10:47.487Z,11.00
2017-12-05T16:13:15.286Z,10.77
2017-12-05T16:15:43.738Z,10.63
2017-12-05T16:18:12.170Z,11.10
2017-12-05T16:20:40.673Z,10.40
2017-12-05T16:23:09.107Z,11.83
2017-12-05T16:25:37.594Z,11.53
2017-12-05T16:28:05.736Z,11.07
2017-12-05T16:30:34.214Z,11.73
2017-12-05T16:33:02.968Z,10.70
2017-12-05T16:35:31.462Z,18.73
2017-12-05T16:37:59.904Z,11.40
2017-12-05T16:40:28.364Z,12.57
2017-12-05T16:42:56.924Z,9.50
2017-12-05T16:45:25.432Z,10.43
2017-12-05T16:47:54.636Z,9.87
2017-12-05T16:50:22.975Z,11.73
2017-12-05T16:52:51.604Z,10.60
2017-12-05T16:55:20.318Z,11.73
2017-12-05T16:57:48.784Z,11.30
2017-12-05T17:00:17.308Z,11.30
2017-12-05T17:02:45.244Z,11.60
2017-12-05T17:05:13.695Z,11.63
2017-12-05T17:07:41.663Z,11.43
2017-12-05T17:10:09.290Z,12.10
2017-12-05T17:12:37.220Z,11.47
2017-12-05T17:15:04.896Z,14.33
2017-12-05T17:17:33.367Z,11.57
2017-12-05T17:20:01.824Z,12.60
2017-12-05T17:22:29.723Z,12.13
2017-12-05T17:24:58.260Z,13.70
2017-12-05T17:27:26.759Z,12.33
2017-12-05T17:29:55.975Z,13.43
2017-12-05T17:32:25.215Z,13.97
2017-12-05T17:34:53.979Z,12.25
2017-12-05T17:37:22.456Z,12.97
2017-12-05T17:39:51.314Z,14.20
2017-12-05T17:42:19.795Z,12.87
2017-12-05T17:44:48.251Z,13.80
2017-12-05T17:47:16.724Z,11.80
2017-12-05T17:49:45.312Z,13.83
2017-12-05T17:52:13.777Z,15.87
2017-12-05T17:54:42.212Z,13.40
2017-12-05T17:57:10.651Z,12.70
2017-12-05T17:59:39.367Z,14.57
2017-12-05T18:02:07.821Z,16.27
2017-12-05T18:04:35.636Z,15.40
2017-12-05T18:07:04.200Z,14.90
2017-12-05T18:09:31.987Z,16.77
2017-12-05T18:12:00.089Z,14.32
2017-12-05T18:14:27.862Z,15.43
2017-12-05T18:16:57.091Z,15.00
2017-12-05T18:19:25.823Z,18.40
2017-12-05T18:21:54.399Z,15.87
2017-12-05T18:24:23.497Z,13.57
2017-12-05T18:26:51.913Z,15.50
2017-12-05T18:29:23.688Z,12.00
2017-12-05T18:31:52.189Z,15.60
2017-12-05T18:34:20.920Z,12.32
2017-12-05T18:36:48.984Z,13.93
2017-12-05T18:39:17.044Z,16.62
2017-12-05T18:41:45.213Z,15.13
2017-12-05T18:44:14.440Z,15.68
2017-12-05T18:46:42.693Z,15.90
2017-12-05T18:49:11.177Z,16.33
2017-12-05T18:51:39.570Z,16.95
2017-12-05T18:54:07.610Z,13.45
2017-12-05T18:56:35.691Z,13.80
2017-12-05T18:59:04.268Z,12.50
2017-12-05T19:01:32.338Z,13.68
2017-12-05T19:04:00.445Z,14.27
2017-12-05T19:06:28.723Z,14.38
2017-12-05T19:08:56.880Z,14.87
2017-12-05T19:11:25.380Z,17.52
2017-12-05T19:13:53.483Z,18.00
2017-12-05T19:16:21.659Z,16.42
2017-12-05T19:18:50.059Z,14.40
2017-12-05T19:21:17.659Z,16.37
2017-12-05T19:23:45.751Z,13.85
2017-12-05T19:26:13.820Z,16.15
2017-12-05T19:28:41.891Z,14.40
2017-12-05T19:31:10.284Z,18.25
2017-12-05T19:33:38.736Z,15.40
2017-12-05T19:36:06.794Z,14.55
2017-12-05T19:38:34.857Z,14.57
2017-12-05T19:41:03.023Z,18.95
2017-12-05T19:43:31.750Z,14.20
2017-12-05T19:45:59.932Z,18.85
2017-12-05T19:48:28.315Z,14.32
2017-12-05T19:50:56.469Z,14.25
2017-12-05T19:53:24.700Z,17.45
2017-12-05T19:55:53.098Z,16.42
2017-12-05T19:58:21.835Z,15.63
2017-12-05T20:00:51.311Z,15.43
2017-12-05T20:03:20.051Z,14.20
2017-12-05T20:05:48.563Z,16.73
2017-12-05T20:08:17.254Z,16.33
2017-12-05T20:10:46.274Z,16.60
2017-12-05T20:13:14.660Z,17.03
2017-12-05T20:15:43.514Z,19.13
2017-12-05T20:18:11.466Z,15.93
2017-12-05T20:20:40.478Z,13.13
2017-12-05T20:23:08.772Z,17.90
2017-12-05T20:25:36.922Z,18.50
2017-12-05T20:28:04.866Z,14.40
2017-12-05T20:30:33.075Z,14.15
2017-12-05T20:33:01.915Z,13.48
2017-12-05T20:35:30.476Z,16.52
2017-12-05T20:37:58.331Z,14.30
2017-12-05T20:40:26.492Z,13.23
2017-12-05T20:42:54.667Z,13.00
2017-12-05T20:45:23.001Z,17.02
2017-12-05T20:47:51.380Z,15.07
2017-12-05T20:50:20.166Z,13.33
2017-12-05T20:52:48.931Z,14.70
2017-12-05T20:55:18.614Z,16.33
2017-12-05T20:57:47.405Z,13.53
2017-12-05T21:00:16.167Z,16.67
2017-12-05T21:02:45.286Z,14.05
2017-12-05T21:05:14.071Z,13.80
2017-12-05T21:07:42.884Z,14.27
2017-12-05T21:10:11.621Z,13.63
2017-12-05T21:12:40.398Z,15.10
2017-12-05T21:15:09.138Z,16.83
2017-12-05T21:17:38.185Z,15.20
2017-12-05T21:20:08.033Z,13.73
2017-12-05T21:22:36.715Z,15.07
2017-12-05T21:25:05.873Z,14.43
2017-12-05T21:27:34.932Z,17.75
2017-12-05T21:30:03.699Z,16.67
2017-12-05T21:32:32.722Z,17.23
2017-12-05T21:35:02.304Z,13.87
2017-12-05T21:37:31.058Z,16.60
2017-12-05T21:39:59.780Z,18.83
2017-12-05T21:42:28.424Z,17.23
2017-12-05T21:44:57.378Z,17.40
2017-12-05T21:47:26.282Z,21.58
2017-12-05T21:49:55.087Z,19.33
2017-12-05T21:52:23.914Z,17.60
2017-12-05T21:54:52.746Z,17.45
2017-12-05T21:57:21.489Z,16.73
2017-12-05T21:59:50.303Z,20.80
2017-12-05T22:02:18.769Z,18.40
2017-12-05T22:04:47.990Z,17.67
2017-12-05T22:07:16.464Z,15.60
2017-12-05T22:09:45.184Z,16.85
2017-12-05T22:12:13.920Z,22.48
2017-12-05T22:14:42.619Z,13.75
2017-12-05T22:17:11.960Z,17.07
2017-12-05T22:19:40.686Z,14.55
2017-12-05T22:22:09.430Z,15.43
2017-12-05T22:24:39.003Z,15.80
2017-12-05T22:27:07.954Z,16.67
2017-12-05T22:29:36.527Z,18.60
2017-12-05T22:32:05.279Z,17.12
2017-12-05T22:34:34.095Z,14.43
2017-12-05T22:37:02.572Z,14.53
2017-12-05T22:39:31.040Z,14.97
2017-12-05T22:42:00.673Z,14.43
2017-12-05T22:44:30.183Z,15.80
2017-12-05T22:46:58.891Z,14.57
2017-12-05T22:49:27.399Z,16.00
2017-12-05T22:51:56.232Z,14.87
2017-12-05T22:54:25.727Z,13.60
2017-12-05T22:56:54.162Z,13.30
2017-12-05T22:59:22.614Z,12.27
2017-12-05T23:01:51.343Z,13.18
2017-12-05T23:04:20.063Z,12.88
2017-12-05T23:06:48.904Z,15.13
2017-12-05T23:09:17.364Z,13.63
2017-12-05T23:11:46.838Z,11.15
2017-12-05T23:14:16.040Z,12.00
2017-12-05T23:16:44.519Z,12.50
2017-12-05T23:19:13.546Z,12.33
2017-12-05T23:21:43.033Z,12.30
2017-12-05T23:24:11.483Z,10.97
2017-12-05T23:26:39.931Z,13.47
2017-12-05T23:29:08.385Z,12.00
2017-12-05T23:31:36.987Z,12.43
2017-12-05T23:34:05.431Z,11.30
2017-12-05T23:36:34.648Z,13.00
2017-12-05T23:39:03.133Z,11.33
2017-12-05T23:41:31.617Z,13.47
2017-12-05T23:44:00.051Z,12.37
2017-12-05T23:46:28.512Z,14.53
2017-12-05T23:48:56.947Z,13.03
2017-12-05T23:51:26.161Z,12.43
2017-12-05T23:53:54.604Z,13.63
2017-12-05T23:56:23.335Z,14.15
2017-12-05T23:58:52.780Z,13.30
